createdAt,value
2017-05-27T00:00:51.627Z,1009.35
2017-05-27T00:01:48.988Z,1009.39
2017-05-27T00:02:45.315Z,1009.30
2017-05-27T00:03:41.635Z,1009.42
2017-05-27T00:04:37.928Z,1009.35
2017-05-27T00:05:34.231Z,1009.36
2017-05-27T00:06:30.544Z,1009.40
2017-05-27T00:07:26.836Z,1009.36
2017-05-27T00:10:42.740Z,1009.41
2017-05-27T00:11:39.032Z,1009.42
2017-05-27T00:12:35.320Z,1009.40
2017-05-27T00:13:31.612Z,1009.38
2017-05-27T00:14:27.943Z,1009.43
2017-05-27T00:15:24.223Z,1009.48
2017-05-27T00:16:20.590Z,1009.44
2017-05-27T00:17:17.800Z,1009.45
2017-05-27T00:18:15.186Z,1009.47
2017-05-27T00:19:11.419Z,1009.50
2017-05-27T00:20:08.721Z,1009.51
2017-05-27T00:21:05.072Z,1009.47
2017-05-27T00:22:01.509Z,1009.41
2017-05-27T00:22:57.900Z,1009.41
2017-05-27T00:23:54.208Z,1009.51
2017-05-27T00:24:50.471Z,1009.42
2017-05-27T00:25:48.732Z,1009.41
2017-05-27T00:26:45.011Z,1009.42
2017-05-27T00:27:43.364Z,1009.43
2017-05-27T00:28:41.612Z,1009.38
2017-05-27T00:29:38.129Z,1009.38
2017-05-27T00:30:34.499Z,1009.29
2017-05-27T00:31:30.871Z,1009.32
2017-05-27T00:32:28.271Z,1009.35
2017-05-27T00:33:24.605Z,1009.36
2017-05-27T00:34:20.960Z,1009.35
2017-05-27T00:36:24.273Z,1009.37
2017-05-27T00:37:20.607Z,1009.35
2017-05-27T00:38:17.904Z,1009.36
2017-05-27T00:39:14.289Z,1009.34
2017-05-27T00:40:11.615Z,1009.41
2017-05-27T00:41:09.021Z,1009.39
2017-05-27T00:49:03.814Z,1009.36
2017-05-27T00:50:01.104Z,1009.40
2017-05-27T00:50:58.441Z,1009.36
2017-05-27T00:51:54.819Z,1009.28
2017-05-27T00:52:52.072Z,1009.31
2017-05-27T00:53:52.500Z,1009.38
2017-05-27T00:54:48.881Z,1009.30
2017-05-27T00:55:45.176Z,1009.33
2017-05-27T00:56:42.269Z,1009.27
2017-05-27T00:57:38.598Z,1009.36
2017-05-27T00:58:35.791Z,1009.31
2017-05-27T00:59:32.291Z,1009.33
2017-05-27T01:00:28.575Z,1009.32
2017-05-27T01:01:24.860Z,1009.39
2017-05-27T01:02:21.262Z,1009.35
2017-05-27T01:03:17.543Z,1009.35
2017-05-27T01:04:13.899Z,1009.44
2017-05-27T01:05:10.279Z,1009.41
2017-05-27T01:06:06.595Z,1009.37
2017-05-27T01:07:02.871Z,1009.46
2017-05-27T01:07:59.224Z,1009.42
2017-05-27T01:08:55.528Z,1009.47
2017-05-27T01:09:52.775Z,1009.47
2017-05-27T01:11:53.416Z,1009.42
2017-05-27T01:12:49.780Z,1009.46
2017-05-27T01:13:46.281Z,1009.44
2017-05-27T01:14:42.687Z,1009.58
2017-05-27T01:15:39.971Z,1009.45
2017-05-27T01:20:04.943Z,1009.51
2017-05-27T01:21:02.187Z,1009.49
2017-05-27T01:21:58.564Z,1009.48
2017-05-27T01:22:55.824Z,1009.46
2017-05-27T01:23:52.124Z,1009.46
2017-05-27T01:24:48.565Z,1009.41
2017-05-27T01:25:44.896Z,1009.39
2017-05-27T01:26:41.227Z,1009.42
2017-05-27T01:27:37.515Z,1009.47
2017-05-27T01:29:38.896Z,1009.44
2017-05-27T01:30:35.350Z,1009.42
2017-05-27T01:31:31.655Z,1009.44
2017-05-27T01:32:28.738Z,1009.38
2017-05-27T01:33:25.240Z,1009.43
2017-05-27T01:34:21.643Z,1009.40
2017-05-27T01:35:18.008Z,1009.47
2017-05-27T01:36:14.384Z,1009.36
2017-05-27T01:37:10.707Z,1009.35
2017-05-27T01:38:07.089Z,1009.44
2017-05-27T01:39:03.387Z,1009.37
2017-05-27T01:40:00.644Z,1009.34
2017-05-27T01:40:59.856Z,1009.39
2017-05-27T01:41:56.296Z,1009.37
2017-05-27T01:42:52.603Z,1009.40
2017-05-27T01:44:54.040Z,1009.40
2017-05-27T01:45:50.512Z,1009.31
2017-05-27T01:46:47.663Z,1009.27
2017-05-27T01:47:43.955Z,1009.35
2017-05-27T01:48:40.272Z,1009.39
2017-05-27T01:49:36.595Z,1009.38
2017-05-27T01:50:32.914Z,1009.33
2017-05-27T01:51:29.372Z,1009.41
2017-05-27T01:52:26.750Z,1009.35
2017-05-27T01:53:23.447Z,1009.44
2017-05-27T01:54:19.767Z,1009.40
2017-05-27T01:55:16.047Z,1009.53
2017-05-27T01:56:13.203Z,1009.47
2017-05-27T01:57:09.477Z,1009.41
2017-05-27T01:58:06.685Z,1009.33
2017-05-27T01:59:03.763Z,1009.47
2017-05-27T02:00:00.039Z,1009.42
2017-05-27T02:00:56.340Z,1009.41
2017-05-27T02:01:53.364Z,1009.47
2017-05-27T02:02:50.601Z,1009.36
2017-05-27T02:03:46.889Z,1009.37
2017-05-27T02:04:43.180Z,1009.38
2017-05-27T02:05:41.355Z,1009.39
2017-05-27T02:06:37.675Z,1009.39
2017-05-27T02:07:33.958Z,1009.38
2017-05-27T02:08:31.232Z,1009.34
2017-05-27T02:09:27.545Z,1009.44
2017-05-27T02:10:24.735Z,1009.38
2017-05-27T02:11:21.028Z,1009.43
2017-05-27T02:12:17.359Z,1009.40
2017-05-27T02:13:14.419Z,1009.47
2017-05-27T02:14:10.751Z,1009.37
2017-05-27T02:15:07.239Z,1009.38
2017-05-27T02:16:03.503Z,1009.41
2017-05-27T02:16:59.811Z,1009.45
2017-05-27T02:17:56.088Z,1009.41
2017-05-27T02:18:52.353Z,1009.47
2017-05-27T02:19:48.638Z,1009.50
2017-05-27T02:20:45.671Z,1009.45
2017-05-27T02:21:41.976Z,1009.45
2017-05-27T02:22:38.275Z,1009.44
2017-05-27T02:23:34.604Z,1009.50
2017-05-27T02:24:30.875Z,1009.45
2017-05-27T02:25:27.196Z,1009.47
2017-05-27T02:26:23.508Z,1009.47
2017-05-27T02:27:19.776Z,1009.53
2017-05-27T02:28:16.063Z,1009.56
2017-05-27T02:29:12.367Z,1009.55
2017-05-27T02:30:08.681Z,1009.55
2017-05-27T02:31:05.955Z,1009.57
2017-05-27T02:32:03.138Z,1009.56
2017-05-27T02:32:59.407Z,1009.58
2017-05-27T02:33:55.700Z,1009.58
2017-05-27T02:34:52.888Z,1009.56
2017-05-27T02:35:49.939Z,1009.46
2017-05-27T02:36:47.152Z,1009.56
2017-05-27T02:37:43.515Z,1009.57
2017-05-27T02:38:40.799Z,1009.58
2017-05-27T02:39:37.944Z,1009.59
2017-05-27T02:40:34.335Z,1009.57
2017-05-27T02:41:31.472Z,1009.55
2017-05-27T02:42:28.760Z,1009.54
2017-05-27T02:43:25.928Z,1009.62
2017-05-27T02:44:22.299Z,1009.49
2017-05-27T02:45:18.684Z,1009.58
2017-05-27T02:46:15.016Z,1009.57
2017-05-27T02:47:11.295Z,1009.51
2017-05-27T02:48:07.591Z,1009.59
2017-05-27T02:49:03.895Z,1009.49
2017-05-27T02:50:00.215Z,1009.49
2017-05-27T02:50:57.334Z,1009.52
2017-05-27T02:51:54.740Z,1009.48
2017-05-27T02:52:51.039Z,1009.56
2017-05-27T02:53:48.224Z,1009.56
2017-05-27T02:54:44.523Z,1009.53
2017-05-27T02:55:41.635Z,1009.52
2017-05-27T02:56:37.935Z,1009.51
2017-05-27T02:57:34.194Z,1009.58
2017-05-27T02:58:30.535Z,1009.53
2017-05-27T02:59:26.839Z,1009.56
2017-05-27T03:00:23.256Z,1009.58
2017-05-27T03:01:19.551Z,1009.58
2017-05-27T03:02:15.840Z,1009.58
2017-05-27T03:03:12.144Z,1009.63
2017-05-27T03:04:09.289Z,1009.61
2017-05-27T03:05:05.664Z,1009.62
2017-05-27T03:06:01.971Z,1009.61
2017-05-27T03:06:58.304Z,1009.52
2017-05-27T03:07:54.683Z,1009.63
2017-05-27T03:08:51.003Z,1009.61
2017-05-27T03:09:48.156Z,1009.57
2017-05-27T03:10:44.467Z,1009.61
2017-05-27T03:11:40.750Z,1009.60
2017-05-27T03:12:37.067Z,1009.66
2017-05-27T03:13:33.347Z,1009.62
2017-05-27T03:14:29.631Z,1009.60
2017-05-27T03:15:25.927Z,1009.64
2017-05-27T03:16:23.216Z,1009.68
2017-05-27T03:17:19.516Z,1009.61
2017-05-27T03:18:15.815Z,1009.63
2017-05-27T03:19:12.147Z,1009.63
2017-05-27T03:20:09.452Z,1009.64
2017-05-27T03:21:06.608Z,1009.57
2017-05-27T03:22:02.980Z,1009.60
2017-05-27T03:23:00.295Z,1009.61
2017-05-27T03:23:57.556Z,1009.63
2017-05-27T03:24:53.844Z,1009.59
2017-05-27T03:25:51.147Z,1009.70
2017-05-27T03:26:47.556Z,1009.69
2017-05-27T03:27:43.920Z,1009.67
2017-05-27T03:28:41.275Z,1009.68
2017-05-27T03:29:37.712Z,1009.65
2017-05-27T03:30:34.015Z,1009.65
2017-05-27T03:31:30.408Z,1009.61
2017-05-27T03:33:33.824Z,1009.67
2017-05-27T03:34:30.163Z,1009.64
2017-05-27T03:35:27.575Z,1009.72
2017-05-27T03:36:24.020Z,1009.62
2017-05-27T03:37:20.692Z,1009.73
2017-05-27T03:38:17.116Z,1009.67
2017-05-27T03:39:15.241Z,1009.67
2017-05-27T03:40:11.699Z,1009.67
2017-05-27T03:41:07.983Z,1009.63
2017-05-27T03:42:04.343Z,1009.71
2017-05-27T03:43:00.687Z,1009.71
2017-05-27T03:43:56.964Z,1009.69
2017-05-27T03:44:53.279Z,1009.72
2017-05-27T03:45:50.611Z,1009.69
2017-05-27T03:46:46.903Z,1009.71
2017-05-27T03:47:43.224Z,1009.74
2017-05-27T03:48:40.404Z,1009.72
2017-05-27T03:49:36.751Z,1009.73
2017-05-27T03:50:33.023Z,1009.73
2017-05-27T03:51:31.238Z,1009.79
2017-05-27T03:52:27.544Z,1009.80
2017-05-27T03:53:25.805Z,1009.73
2017-05-27T03:54:22.092Z,1009.72
2017-05-27T03:55:18.371Z,1009.73
2017-05-27T03:56:15.572Z,1009.68
2017-05-27T03:57:11.879Z,1009.72
2017-05-27T03:58:09.071Z,1009.75
2017-05-27T03:59:05.358Z,1009.77
2017-05-27T04:00:01.674Z,1009.73
2017-05-27T04:00:59.840Z,1009.75
2017-05-27T04:01:56.171Z,1009.75
2017-05-27T04:02:52.520Z,1009.76
2017-05-27T04:03:48.833Z,1009.73
2017-05-27T04:04:46.267Z,1009.81
2017-05-27T04:05:42.641Z,1009.84
2017-05-27T04:06:38.955Z,1009.79
2017-05-27T04:07:36.268Z,1009.86
2017-05-27T04:08:32.636Z,1009.84
2017-05-27T04:09:28.923Z,1009.91
2017-05-27T04:10:26.075Z,1009.87
2017-05-27T04:11:23.179Z,1009.82
2017-05-27T04:12:20.404Z,1009.87
2017-05-27T04:13:18.704Z,1009.85
2017-05-27T04:14:15.121Z,1009.87
2017-05-27T04:15:12.231Z,1009.83
2017-05-27T04:16:08.515Z,1009.88
2017-05-27T04:17:05.763Z,1009.91
2017-05-27T04:18:02.099Z,1009.82
2017-05-27T04:18:58.419Z,1009.80
2017-05-27T04:19:54.755Z,1009.85
2017-05-27T04:20:52.081Z,1009.92
2017-05-27T04:21:48.411Z,1009.91
2017-05-27T04:22:46.743Z,1009.91
2017-05-27T04:23:44.007Z,1009.91
2017-05-27T04:24:40.328Z,1009.88
2017-05-27T04:26:41.672Z,1009.86
2017-05-27T04:27:40.021Z,1009.94
2017-05-27T04:28:36.404Z,1009.93
2017-05-27T04:29:33.692Z,1009.95
2017-05-27T04:30:30.087Z,1009.99
2017-05-27T04:31:27.296Z,1009.95
2017-05-27T04:32:25.640Z,1010.00
2017-05-27T04:33:21.959Z,1009.95
2017-05-27T04:34:18.380Z,1009.98
2017-05-27T04:36:23.600Z,1010.06
2017-05-27T04:37:21.803Z,1009.96
2017-05-27T04:38:18.208Z,1010.10
2017-05-27T04:39:15.525Z,1010.07
2017-05-27T04:40:12.655Z,1010.12
2017-05-27T04:41:09.959Z,1010.04
2017-05-27T04:42:06.272Z,1010.04
2017-05-27T04:43:03.404Z,1010.03
2017-05-27T04:43:59.852Z,1010.02
2017-05-27T04:44:56.372Z,1010.09
2017-05-27T04:45:52.711Z,1010.10
2017-05-27T04:46:50.948Z,1010.11
2017-05-27T04:47:47.299Z,1010.09
2017-05-27T04:48:43.620Z,1010.09
2017-05-27T04:49:40.153Z,1010.08
2017-05-27T04:50:36.475Z,1010.04
2017-05-27T04:51:33.767Z,1010.08
2017-05-27T04:52:30.176Z,1009.93
2017-05-27T04:53:27.356Z,1010.00
2017-05-27T04:54:23.691Z,1010.08
2017-05-27T04:55:21.018Z,1010.04
2017-05-27T04:56:17.388Z,1010.01
2017-05-27T04:57:13.808Z,1009.98
2017-05-27T04:58:11.031Z,1009.98
2017-05-27T04:59:08.268Z,1010.06
2017-05-27T05:00:04.917Z,1010.06
2017-05-27T05:01:01.339Z,1010.00
2017-05-27T05:01:57.717Z,1010.03
2017-05-27T05:02:54.217Z,1010.07
2017-05-27T05:03:50.799Z,1010.10
2017-05-27T05:04:47.104Z,1010.08
2017-05-27T05:05:47.524Z,1010.01
2017-05-27T05:06:44.657Z,1010.06
2017-05-27T05:07:41.783Z,1010.09
2017-05-27T05:08:38.185Z,1010.10
2017-05-27T05:09:34.608Z,1010.06
2017-05-27T05:10:30.963Z,1010.07
2017-05-27T05:11:28.040Z,1010.13
2017-05-27T05:12:26.192Z,1010.16
2017-05-27T05:13:22.579Z,1010.15
2017-05-27T05:14:19.753Z,1010.22
2017-05-27T05:15:16.836Z,1010.19
2017-05-27T05:17:24.628Z,1010.22
2017-05-27T05:18:21.007Z,1010.13
2017-05-27T05:19:19.212Z,1010.13
2017-05-27T05:20:15.543Z,1010.21
2017-05-27T05:21:11.854Z,1010.17
2017-05-27T05:22:08.209Z,1010.21
2017-05-27T05:23:04.746Z,1010.27
2017-05-27T05:24:01.047Z,1010.28
2017-05-27T05:24:58.220Z,1010.14
2017-05-27T05:25:54.499Z,1010.21
2017-05-27T05:26:50.807Z,1010.23
2017-05-27T05:27:47.119Z,1010.23
2017-05-27T05:28:45.444Z,1010.21
2017-05-27T05:29:41.815Z,1010.22
2017-05-27T05:30:38.903Z,1010.18
2017-05-27T05:31:36.004Z,1010.17
2017-05-27T05:32:32.336Z,1010.24
2017-05-27T05:33:28.684Z,1010.13
2017-05-27T05:34:26.004Z,1010.19
2017-05-27T05:35:24.421Z,1010.22
2017-05-27T05:36:21.836Z,1010.24
2017-05-27T05:37:18.139Z,1010.16
2017-05-27T05:40:27.695Z,1010.26
2017-05-27T05:41:23.991Z,1010.26
2017-05-27T05:42:20.291Z,1010.21
2017-05-27T05:43:16.575Z,1010.24
2017-05-27T05:45:25.328Z,1010.24
2017-05-27T05:46:23.604Z,1010.22
2017-05-27T05:47:20.172Z,1010.29
2017-05-27T05:48:16.591Z,1010.27
2017-05-27T05:49:12.905Z,1010.24
2017-05-27T05:50:09.233Z,1010.18
2017-05-27T05:51:06.448Z,1010.21
2017-05-27T05:52:02.900Z,1010.26
2017-05-27T05:53:00.098Z,1010.29
2017-05-27T05:53:56.516Z,1010.24
2017-05-27T05:54:52.877Z,1010.21
2017-05-27T05:55:51.121Z,1010.22
2017-05-27T05:56:47.484Z,1010.25
2017-05-27T05:57:44.933Z,1010.26
2017-05-27T05:58:42.300Z,1010.24
2017-05-27T05:59:38.717Z,1010.29
2017-05-27T06:00:36.860Z,1010.27
2017-05-27T06:01:33.152Z,1010.23
2017-05-27T06:02:30.315Z,1010.35
2017-05-27T06:03:27.465Z,1010.32
2017-05-27T06:04:23.763Z,1010.27
2017-05-27T06:05:21.227Z,1010.29
2017-05-27T06:06:17.603Z,1010.33
2017-05-27T06:07:14.815Z,1010.28
2017-05-27T06:08:11.139Z,1010.34
2017-05-27T06:09:07.489Z,1010.36
2017-05-27T06:10:03.800Z,1010.32
2017-05-27T06:11:00.087Z,1010.30
2017-05-27T06:11:56.611Z,1010.29
2017-05-27T06:12:52.895Z,1010.25
2017-05-27T06:13:49.247Z,1010.27
2017-05-27T06:14:45.560Z,1010.30
2017-05-27T06:15:42.728Z,1010.25
2017-05-27T06:16:39.111Z,1010.22
2017-05-27T06:17:37.456Z,1010.24
2017-05-27T06:18:33.782Z,1010.24
2017-05-27T06:19:30.184Z,1010.27
2017-05-27T06:20:26.483Z,1010.20
2017-05-27T06:21:23.788Z,1010.24
2017-05-27T06:22:20.206Z,1010.30
2017-05-27T06:23:18.432Z,1010.31
2017-05-27T06:24:14.795Z,1010.24
2017-05-27T06:25:11.074Z,1010.21
2017-05-27T06:26:07.358Z,1010.27
2017-05-27T06:27:03.667Z,1010.23
2017-05-27T06:27:59.975Z,1010.31
2017-05-27T06:28:58.138Z,1010.28
2017-05-27T06:29:54.539Z,1010.36
2017-05-27T06:30:50.812Z,1010.36
2017-05-27T06:31:49.056Z,1010.26
2017-05-27T06:32:45.379Z,1010.26
2017-05-27T06:33:41.663Z,1010.38
2017-05-27T06:34:37.940Z,1010.39
2017-05-27T06:35:34.260Z,1010.32
2017-05-27T06:36:30.542Z,1010.36
2017-05-27T06:37:26.823Z,1010.39
2017-05-27T06:38:24.060Z,1010.30
2017-05-27T06:39:20.380Z,1010.36
2017-05-27T06:43:46.624Z,1010.38
2017-05-27T06:44:42.961Z,1010.29
2017-05-27T06:45:39.235Z,1010.34
2017-05-27T06:46:35.498Z,1010.28
2017-05-27T06:47:31.755Z,1010.31
2017-05-27T06:48:28.088Z,1010.35
2017-05-27T06:49:24.419Z,1010.35
2017-05-27T06:50:22.643Z,1010.31
2017-05-27T06:51:18.967Z,1010.38
2017-05-27T06:52:17.331Z,1010.31
2017-05-27T06:53:13.700Z,1010.43
2017-05-27T06:54:10.867Z,1010.30
2017-05-27T06:55:07.267Z,1010.37
2017-05-27T06:56:03.561Z,1010.34
2017-05-27T06:57:00.791Z,1010.36
2017-05-27T06:57:59.100Z,1010.36
2017-05-27T06:58:55.460Z,1010.42
2017-05-27T06:59:51.761Z,1010.35
2017-05-27T07:00:48.027Z,1010.33
2017-05-27T07:01:44.336Z,1010.36
2017-05-27T07:02:40.604Z,1010.35
2017-05-27T07:03:36.883Z,1010.34
2017-05-27T07:04:33.188Z,1010.29
2017-05-27T07:05:29.513Z,1010.36
2017-05-27T07:06:25.839Z,1010.31
2017-05-27T07:07:22.127Z,1010.28
2017-05-27T07:08:18.466Z,1010.31
2017-05-27T07:09:14.798Z,1010.29
2017-05-27T07:10:12.023Z,1010.33
2017-05-27T07:11:08.328Z,1010.30
2017-05-27T07:12:04.672Z,1010.26
2017-05-27T07:13:01.805Z,1010.28
2017-05-27T07:13:58.095Z,1010.27
2017-05-27T07:14:54.360Z,1010.25
2017-05-27T07:15:50.703Z,1010.22
2017-05-27T07:16:47.011Z,1010.15
2017-05-27T07:17:43.295Z,1010.20
2017-05-27T07:18:40.340Z,1010.20
2017-05-27T07:19:36.658Z,1010.23
2017-05-27T07:20:32.959Z,1010.19
2017-05-27T07:21:29.292Z,1010.18
2017-05-27T07:22:26.607Z,1010.21
2017-05-27T07:23:22.871Z,1010.11
2017-05-27T07:24:20.043Z,1010.17
2017-05-27T07:25:16.323Z,1010.17
2017-05-27T07:26:12.623Z,1010.21
2017-05-27T07:27:08.930Z,1010.21
2017-05-27T07:28:05.211Z,1010.17
2017-05-27T07:29:01.463Z,1010.17
2017-05-27T07:29:57.741Z,1010.27
2017-05-27T07:30:54.050Z,1010.22
2017-05-27T07:31:50.323Z,1010.15
2017-05-27T07:32:46.602Z,1010.15
2017-05-27T07:33:43.763Z,1010.14
2017-05-27T07:34:40.108Z,1010.18
2017-05-27T07:35:36.423Z,1010.17
2017-05-27T07:36:32.743Z,1010.20
2017-05-27T07:37:29.051Z,1010.19
2017-05-27T07:38:27.268Z,1010.21
2017-05-27T07:39:23.540Z,1010.35
2017-05-27T07:40:19.818Z,1010.27
2017-05-27T07:41:16.085Z,1010.21
2017-05-27T07:42:12.399Z,1010.30
2017-05-27T07:43:08.691Z,1010.34
2017-05-27T07:44:04.971Z,1010.27
2017-05-27T07:45:02.263Z,1010.34
2017-05-27T07:45:59.553Z,1010.34
2017-05-27T07:46:55.858Z,1010.33
2017-05-27T07:47:52.196Z,1010.32
2017-05-27T07:48:48.580Z,1010.33
2017-05-27T07:49:44.896Z,1010.38
2017-05-27T07:50:41.199Z,1010.35
2017-05-27T07:51:37.521Z,1010.32
2017-05-27T07:52:33.862Z,1010.37
2017-05-27T07:53:30.175Z,1010.41
2017-05-27T07:54:26.508Z,1010.33
2017-05-27T07:55:22.848Z,1010.26
2017-05-27T07:56:19.149Z,1010.25
2017-05-27T07:57:15.476Z,1010.24
2017-05-27T07:58:11.896Z,1010.31
2017-05-27T07:59:08.169Z,1010.26
2017-05-27T08:00:04.471Z,1010.31
2017-05-27T08:01:00.859Z,1010.22
2017-05-27T08:01:57.131Z,1010.26
2017-05-27T08:02:53.527Z,1010.25
2017-05-27T08:03:49.800Z,1010.31
2017-05-27T08:04:46.115Z,1010.24
2017-05-27T08:05:42.399Z,1010.20
2017-05-27T08:06:38.683Z,1010.23
2017-05-27T08:07:34.956Z,1010.30
2017-05-27T08:08:31.229Z,1010.22
2017-05-27T08:09:27.531Z,1010.27
2017-05-27T08:10:23.836Z,1010.20
2017-05-27T08:11:20.095Z,1010.18
2017-05-27T08:12:16.351Z,1010.18
2017-05-27T08:13:12.630Z,1010.25
2017-05-27T08:14:09.217Z,1010.18
2017-05-27T08:15:05.699Z,1010.21
2017-05-27T08:16:02.023Z,1010.18
2017-05-27T08:16:58.283Z,1010.19
2017-05-27T08:17:54.547Z,1010.22
2017-05-27T08:18:50.794Z,1010.22
2017-05-27T08:19:47.060Z,1010.13
2017-05-27T08:20:43.314Z,1010.10
2017-05-27T08:21:39.604Z,1010.11
2017-05-27T08:22:35.903Z,1010.10
2017-05-27T08:23:32.155Z,1010.11
2017-05-27T08:24:28.435Z,1010.07
2017-05-27T08:25:24.711Z,1010.20
2017-05-27T08:26:20.963Z,1010.12
2017-05-27T08:27:17.235Z,1010.20
2017-05-27T08:28:14.416Z,1010.13
2017-05-27T08:29:10.704Z,1010.07
2017-05-27T08:30:06.971Z,1010.11
2017-05-27T08:31:03.251Z,1009.99
2017-05-27T08:31:59.523Z,1009.98
2017-05-27T08:33:00.460Z,1010.05
2017-05-27T08:34:01.414Z,1009.97
2017-05-27T08:35:02.361Z,1009.95
2017-05-27T08:35:58.634Z,1009.97
2017-05-27T08:36:54.920Z,1010.01
2017-05-27T08:37:51.180Z,1010.06
2017-05-27T08:38:47.451Z,1009.97
2017-05-27T08:39:43.711Z,1009.99
2017-05-27T08:40:39.974Z,1010.01
2017-05-27T08:41:36.248Z,1009.93
2017-05-27T08:42:32.547Z,1009.97
2017-05-27T08:43:28.820Z,1009.97
2017-05-27T08:44:25.079Z,1009.96
2017-05-27T08:45:21.331Z,1010.01
2017-05-27T08:46:17.606Z,1009.94
2017-05-27T08:47:13.859Z,1009.97
2017-05-27T08:48:10.143Z,1009.94
2017-05-27T08:49:06.399Z,1009.94
2017-05-27T08:50:02.655Z,1009.99
2017-05-27T08:50:59.695Z,1009.98
2017-05-27T08:51:55.977Z,1010.01
2017-05-27T08:52:52.224Z,1010.00
2017-05-27T08:53:48.511Z,1009.94
2017-05-27T08:54:44.768Z,1009.93
2017-05-27T08:55:41.027Z,1009.99
2017-05-27T08:56:37.289Z,1009.97
2017-05-27T08:57:33.543Z,1009.92
2017-05-27T08:58:29.824Z,1009.96
2017-05-27T08:59:26.103Z,1009.99
2017-05-27T09:00:22.383Z,1009.96
2017-05-27T09:01:18.639Z,1010.02
2017-05-27T09:02:14.904Z,1009.95
2017-05-27T09:03:11.162Z,1010.00
2017-05-27T09:04:07.440Z,1009.98
2017-05-27T09:05:03.732Z,1010.00
2017-05-27T09:05:59.978Z,1009.99
2017-05-27T09:06:56.235Z,1009.98
2017-05-27T09:07:52.495Z,1010.00
2017-05-27T09:08:48.755Z,1009.94
2017-05-27T09:09:45.035Z,1009.90
2017-05-27T09:10:41.299Z,1009.95
2017-05-27T09:11:37.555Z,1009.90
2017-05-27T09:12:33.817Z,1009.97
2017-05-27T09:13:30.080Z,1009.98
2017-05-27T09:14:26.347Z,1009.91
2017-05-27T09:15:22.623Z,1009.98
2017-05-27T09:16:18.881Z,1010.02
2017-05-27T09:17:15.140Z,1009.92
2017-05-27T09:18:11.409Z,1009.96
2017-05-27T09:19:07.698Z,1009.95
2017-05-27T09:20:03.963Z,1009.96
2017-05-27T09:21:00.252Z,1009.95
2017-05-27T09:21:56.512Z,1009.93
2017-05-27T09:22:52.771Z,1009.91
2017-05-27T09:23:49.043Z,1009.87
2017-05-27T09:24:45.308Z,1009.91
2017-05-27T09:25:41.586Z,1009.87
2017-05-27T09:26:37.871Z,1009.79
2017-05-27T09:27:34.132Z,1009.86
2017-05-27T09:28:30.395Z,1009.81
2017-05-27T09:29:26.656Z,1009.85
2017-05-27T09:30:22.930Z,1009.85
2017-05-27T09:31:19.227Z,1009.85
2017-05-27T09:32:15.487Z,1009.87
2017-05-27T09:33:11.736Z,1009.87
2017-05-27T09:34:08.001Z,1009.92
2017-05-27T09:35:04.292Z,1009.82
2017-05-27T09:36:00.563Z,1009.90
2017-05-27T09:36:56.840Z,1009.91
2017-05-27T09:37:53.099Z,1009.86
2017-05-27T09:38:49.348Z,1009.89
2017-05-27T09:39:45.618Z,1009.92
2017-05-27T09:40:41.891Z,1009.88
2017-05-27T09:41:38.151Z,1009.77
2017-05-27T09:42:34.436Z,1009.86
2017-05-27T09:43:30.695Z,1009.86
2017-05-27T09:44:26.963Z,1009.83
2017-05-27T09:45:23.231Z,1009.83
2017-05-27T09:46:19.495Z,1009.84
2017-05-27T09:47:15.771Z,1009.75
2017-05-27T09:48:12.087Z,1009.78
2017-05-27T09:49:08.371Z,1009.84
2017-05-27T09:50:04.639Z,1009.74
2017-05-27T09:51:00.907Z,1009.85
2017-05-27T09:51:57.166Z,1009.84
2017-05-27T09:52:53.430Z,1009.79
2017-05-27T09:53:49.703Z,1009.84
2017-05-27T09:54:45.982Z,1009.80
2017-05-27T09:55:42.247Z,1009.81
2017-05-27T09:56:38.531Z,1009.82
2017-05-27T09:57:34.803Z,1009.82
2017-05-27T09:58:31.206Z,1009.77
2017-05-27T09:59:27.503Z,1009.71
2017-05-27T10:00:23.759Z,1009.70
2017-05-27T10:01:20.027Z,1009.69
2017-05-27T10:02:16.296Z,1009.70
2017-05-27T10:03:12.559Z,1009.79
2017-05-27T10:04:08.827Z,1009.73
2017-05-27T10:05:05.106Z,1009.81
2017-05-27T10:06:01.366Z,1009.78
2017-05-27T10:06:57.623Z,1009.74
2017-05-27T10:07:53.896Z,1009.86
2017-05-27T10:08:50.170Z,1009.87
2017-05-27T10:09:46.440Z,1009.87
2017-05-27T10:10:42.715Z,1009.79
2017-05-27T10:11:38.990Z,1009.80
2017-05-27T10:12:35.247Z,1009.91
2017-05-27T10:13:31.518Z,1009.91
2017-05-27T10:14:27.788Z,1009.80
2017-05-27T10:15:24.063Z,1009.79
2017-05-27T10:16:20.319Z,1009.75
2017-05-27T10:17:16.575Z,1009.72
2017-05-27T10:18:12.851Z,1009.66
2017-05-27T10:19:09.118Z,1009.65
2017-05-27T10:20:05.375Z,1009.57
2017-05-27T10:21:01.652Z,1009.65
2017-05-27T10:21:57.928Z,1009.58
2017-05-27T10:22:54.228Z,1009.62
2017-05-27T10:23:50.503Z,1009.62
2017-05-27T10:24:46.772Z,1009.66
2017-05-27T10:25:43.043Z,1009.70
2017-05-27T10:26:39.311Z,1009.59
2017-05-27T10:27:35.584Z,1009.60
2017-05-27T10:28:31.864Z,1009.64
2017-05-27T10:29:28.143Z,1009.61
2017-05-27T10:30:24.395Z,1009.63
2017-05-27T10:31:20.683Z,1009.59
2017-05-27T10:32:16.941Z,1009.59
2017-05-27T10:33:13.194Z,1009.55
2017-05-27T10:34:09.463Z,1009.64
2017-05-27T10:35:05.719Z,1009.56
2017-05-27T10:36:01.983Z,1009.55
2017-05-27T10:36:58.275Z,1009.60
2017-05-27T10:37:54.547Z,1009.65
2017-05-27T10:38:50.823Z,1009.60
2017-05-27T10:39:47.096Z,1009.58
2017-05-27T10:40:43.375Z,1009.56
2017-05-27T10:41:39.640Z,1009.48
2017-05-27T10:42:35.935Z,1009.48
2017-05-27T10:43:32.200Z,1009.55
2017-05-27T10:44:28.495Z,1009.56
2017-05-27T10:45:25.009Z,1009.53
2017-05-27T10:46:21.266Z,1009.50
2017-05-27T10:47:17.528Z,1009.50
2017-05-27T10:48:13.813Z,1009.57
2017-05-27T10:49:10.079Z,1009.54
2017-05-27T10:50:06.348Z,1009.45
2017-05-27T10:51:02.612Z,1009.41
2017-05-27T10:51:58.862Z,1009.50
2017-05-27T10:52:55.137Z,1009.47
2017-05-27T10:53:51.432Z,1009.49
2017-05-27T10:54:47.695Z,1009.48
2017-05-27T10:55:43.959Z,1009.50
2017-05-27T10:56:40.251Z,1009.54
2017-05-27T10:57:36.533Z,1009.55
2017-05-27T10:58:32.819Z,1009.50
2017-05-27T10:59:29.087Z,1009.39
2017-05-27T11:00:25.351Z,1009.38
2017-05-27T11:01:21.610Z,1009.40
2017-05-27T11:02:17.875Z,1009.26
2017-05-27T11:03:14.131Z,1009.31
2017-05-27T11:04:10.411Z,1009.30
2017-05-27T11:05:06.700Z,1009.24
2017-05-27T11:06:02.978Z,1009.21
2017-05-27T11:06:59.239Z,1009.21
2017-05-27T11:07:55.499Z,1009.25
2017-05-27T11:08:51.779Z,1009.21
2017-05-27T11:09:48.079Z,1009.19
2017-05-27T11:10:44.356Z,1009.17
2017-05-27T11:11:40.626Z,1009.22
2017-05-27T11:12:36.894Z,1009.18
2017-05-27T11:13:33.167Z,1009.18
2017-05-27T11:14:29.452Z,1009.22
2017-05-27T11:15:25.722Z,1009.27
2017-05-27T11:16:21.986Z,1009.21
2017-05-27T11:17:18.244Z,1009.15
2017-05-27T11:18:14.530Z,1009.18
2017-05-27T11:19:10.798Z,1009.19
2017-05-27T11:20:07.071Z,1009.13
2017-05-27T11:21:03.328Z,1009.15
2017-05-27T11:21:59.636Z,1009.13
2017-05-27T11:22:55.919Z,1009.09
2017-05-27T11:23:52.183Z,1009.11
2017-05-27T11:24:48.442Z,1009.11
2017-05-27T11:25:44.749Z,1009.14
2017-05-27T11:26:41.028Z,1009.04
2017-05-27T11:27:37.299Z,1009.06
2017-05-27T11:28:33.559Z,1009.07
2017-05-27T11:29:29.823Z,1009.10
2017-05-27T11:30:26.099Z,1008.95
2017-05-27T11:31:22.375Z,1009.03
2017-05-27T11:32:18.639Z,1008.96
2017-05-27T11:33:14.894Z,1009.00
2017-05-27T11:34:11.151Z,1008.95
2017-05-27T11:35:07.413Z,1008.86
2017-05-27T11:36:03.712Z,1008.90
2017-05-27T11:37:00.876Z,1008.90
2017-05-27T11:37:57.143Z,1008.86
2017-05-27T11:38:53.406Z,1008.80
2017-05-27T11:39:49.667Z,1008.83
2017-05-27T11:40:45.952Z,1008.84
2017-05-27T11:41:42.243Z,1008.88
2017-05-27T11:42:38.551Z,1008.81
2017-05-27T11:43:34.807Z,1008.82
2017-05-27T11:44:31.075Z,1008.78
2017-05-27T11:45:27.343Z,1008.76
2017-05-27T11:46:23.603Z,1008.86
2017-05-27T11:47:19.888Z,1008.82
2017-05-27T11:48:16.163Z,1008.80
2017-05-27T11:49:12.416Z,1008.82
2017-05-27T11:50:08.670Z,1008.76
2017-05-27T11:51:04.943Z,1008.81
2017-05-27T11:52:01.190Z,1008.75
2017-05-27T11:52:57.471Z,1008.83